sensor_id;sensor_type;location;lat;lon;timestamp;pressure;altitude;pressure_sealevel;temperature;humidity
9764;BME280;4921;43.214;27.936;2023-03-26T00:01:30;100149.88;;;11.49;100.00
9764;BME280;4921;43.214;27.936;2023-03-26T00:03:58;100135.03;;;11.39;100.00
9764;BME280;4921;43.214;27.936;2023-03-26T00:06:27;100148.66;;;11.54;100.00
9764;BME280;4921;43.214;27.936;2023-03-26T00:08:56;100144.59;;;11.59;100.00
9764;BME280;4921;43.214;27.936;2023-03-26T00:11:25;100161.66;;;11.55;100.00
9764;BME280;4921;43.214;27.936;2023-03-26T00:13:53;100148.78;;;11.62;100.00
9764;BME280;4921;43.214;27.936;2023-03-26T00:16:23;100159.56;;;11.59;100.00
9764;BME280;4921;43.214;27.936;2023-03-26T00:18:52;100165.53;;;11.61;100.00
9764;BME280;4921;43.214;27.936;2023-03-26T00:21:22;100160.00;;;11.64;100.00
9764;BME280;4921;43.214;27.936;2023-03-26T00:23:52;100170.84;;;11.70;100.00
9764;BME280;4921;43.214;27.936;2023-03-26T00:26:19;100162.94;;;11.70;100.00
9764;BME280;4921;43.214;27.936;2023-03-26T00:28:47;100164.72;;;11.70;100.00
9764;BME280;4921;43.214;27.936;2023-03-26T00:31:15;100169.31;;;11.77;100.00
9764;BME280;4921;43.214;27.936;2023-03-26T00:33:43;100173.44;;;11.80;100.00
9764;BME280;4921;43.214;27.936;2023-03-26T00:36:13;100187.19;;;11.83;100.00
9764;BME280;4921;43.214;27.936;2023-03-26T00:38:42;100179.97;;;11.76;100.00
9764;BME280;4921;43.214;27.936;2023-03-26T00:41:13;100182.72;;;11.93;100.00
9764;BME280;4921;43.214;27.936;2023-03-26T00:43:48;100186.63;;;11.99;100.00
9764;BME280;4921;43.214;27.936;2023-03-26T00:46:16;100187.41;;;11.99;100.00
9764;BME280;4921;43.214;27.936;2023-03-26T00:48:43;100190.63;;;12.03;100.00
9764;BME280;4921;43.214;27.936;2023-03-26T00:51:13;100193.94;;;12.05;100.00
9764;BME280;4921;43.214;27.936;2023-03-26T00:53:41;100190.19;;;12.07;100.00
9764;BME280;4921;43.214;27.936;2023-03-26T00:56:09;100190.47;;;12.04;100.00
9764;BME280;4921;43.214;27.936;2023-03-26T00:58:36;100191.59;;;12.02;100.00
9764;BME280;4921;43.214;27.936;2023-03-26T01:01:06;100196.00;;;12.01;100.00
9764;BME280;4921;43.214;27.936;2023-03-26T01:03:35;100199.34;;;12.03;100.00
9764;BME280;4921;43.214;27.936;2023-03-26T01:06:04;100196.84;;;12.02;100.00
9764;BME280;4921;43.214;27.936;2023-03-26T01:08:36;100207.81;;;11.97;100.00
9764;BME280;4921;43.214;27.936;2023-03-26T01:11:07;100201.59;;;11.98;100.00
9764;BME280;4921;43.214;27.936;2023-03-26T01:13:40;100205.06;;;11.89;100.00
9764;BME280;4921;43.214;27.936;2023-03-26T01:16:13;100193.28;;;11.84;100.00
9764;BME280;4921;43.214;27.936;2023-03-26T01:18:45;100186.88;;;11.96;100.00
9764;BME280;4921;43.214;27.936;2023-03-26T01:21:17;100191.63;;;11.92;100.00
9764;BME280;4921;43.214;27.936;2023-03-26T01:23:58;100174.84;;;11.84;100.00
9764;BME280;4921;43.214;27.936;2023-03-26T01:26:42;100187.88;;;11.85;100.00
9764;BME280;4921;43.214;27.936;2023-03-26T01:29:18;100193.56;;;11.90;100.00
9764;BME280;4921;43.214;27.936;2023-03-26T01:31:54;100194.25;;;11.92;100.00
9764;BME280;4921;43.214;27.936;2023-03-26T01:34:29;100199.63;;;11.91;100.00
9764;BME280;4921;43.214;27.936;2023-03-26T01:37:08;100201.84;;;11.95;100.00
9764;BME280;4921;43.214;27.936;2023-03-26T01:39:42;100198.53;;;11.93;100.00
9764;BME280;4921;43.214;27.936;2023-03-26T01:42:21;100191.72;;;11.91;100.00
9764;BME280;4921;43.214;27.936;2023-03-26T01:45:05;100195.63;;;11.87;100.00
9764;BME280;4921;43.214;27.936;2023-03-26T01:47:36;100196.75;;;11.94;100.00
9764;BME280;4921;43.214;27.936;2023-03-26T01:50:04;100194.63;;;11.97;100.00
9764;BME280;4921;43.214;27.936;2023-03-26T01:52:32;100197.84;;;12.01;100.00
9764;BME280;4921;43.214;27.936;2023-03-26T01:55:00;100201.00;;;12.04;100.00
9764;BME280;4921;43.214;27.936;2023-03-26T01:57:34;100197.28;;;12.07;100.00
9764;BME280;4921;43.214;27.936;2023-03-26T02:00:22;100196.00;;;12.11;100.00
9764;BME280;4921;43.214;27.936;2023-03-26T02:03:10;100201.97;;;12.13;100.00
9764;BME280;4921;43.214;27.936;2023-03-26T02:06:02;100201.69;;;12.16;100.00
9764;BME280;4921;43.214;27.936;2023-03-26T02:08:34;100183.94;;;12.08;100.00
9764;BME280;4921;43.214;27.936;2023-03-26T02:11:08;100187.53;;;12.17;100.00
9764;BME280;4921;43.214;27.936;2023-03-26T02:13:37;100184.63;;;12.20;100.00
9764;BME280;4921;43.214;27.936;2023-03-26T02:16:07;100186.94;;;12.23;100.00
9764;BME280;4921;43.214;27.936;2023-03-26T02:18:34;100186.00;;;12.24;100.00
9764;BME280;4921;43.214;27.936;2023-03-26T02:21:06;100182.25;;;12.27;100.00
9764;BME280;4921;43.214;27.936;2023-03-26T02:23:35;100188.47;;;12.25;100.00
9764;BME280;4921;43.214;27.936;2023-03-26T02:26:06;100195.13;;;12.30;100.00
9764;BME280;4921;43.214;27.936;2023-03-26T02:28:34;100189.31;;;12.26;100.00
9764;BME280;4921;43.214;27.936;2023-03-26T02:31:01;100200.81;;;12.35;100.00
9764;BME280;4921;43.214;27.936;2023-03-26T02:33:28;100189.84;;;12.30;100.00
9764;BME280;4921;43.214;27.936;2023-03-26T02:35:56;100195.00;;;12.31;100.00
9764;BME280;4921;43.214;27.936;2023-03-26T02:38:26;100190.16;;;12.27;100.00
9764;BME280;4921;43.214;27.936;2023-03-26T02:40:54;100187.22;;;12.30;100.00
9764;BME280;4921;43.214;27.936;2023-03-26T02:43:22;100187.63;;;12.35;100.00
9764;BME280;4921;43.214;27.936;2023-03-26T02:45:50;100189.56;;;12.33;100.00
9764;BME280;4921;43.214;27.936;2023-03-26T02:48:17;100191.38;;;12.32;100.00
9764;BME280;4921;43.214;27.936;2023-03-26T02:50:45;100195.69;;;12.33;100.00
9764;BME280;4921;43.214;27.936;2023-03-26T02:53:14;100190.78;;;12.38;100.00
9764;BME280;4921;43.214;27.936;2023-03-26T02:55:41;100193.00;;;12.43;100.00
9764;BME280;4921;43.214;27.936;2023-03-26T02:58:08;100199.53;;;12.48;100.00
9764;BME280;4921;43.214;27.936;2023-03-26T03:00:56;100209.75;;;12.51;100.00
9764;BME280;4921;43.214;27.936;2023-03-26T03:03:24;100208.38;;;12.47;100.00
9764;BME280;4921;43.214;27.936;2023-03-26T03:05:52;100202.16;;;12.48;100.00
9764;BME280;4921;43.214;27.936;2023-03-26T03:08:21;100201.16;;;12.49;100.00
9764;BME280;4921;43.214;27.936;2023-03-26T03:10:59;100208.66;;;12.54;100.00
9764;BME280;4921;43.214;27.936;2023-03-26T03:13:26;100216.28;;;12.57;100.00
9764;BME280;4921;43.214;27.936;2023-03-26T03:15:53;100211.69;;;12.59;100.00
9764;BME280;4921;43.214;27.936;2023-03-26T03:18:22;100208.75;;;12.62;100.00
9764;BME280;4921;43.214;27.936;2023-03-26T03:20:49;100205.16;;;12.63;100.00
9764;BME280;4921;43.214;27.936;2023-03-26T03:23:16;100211.78;;;12.67;100.00
9764;BME280;4921;43.214;27.936;2023-03-26T03:25:43;100209.00;;;12.68;100.00
9764;BME280;4921;43.214;27.936;2023-03-26T03:28:10;100216.78;;;12.70;100.00
9764;BME280;4921;43.214;27.936;2023-03-26T03:30:38;100222.44;;;12.75;100.00
9764;BME280;4921;43.214;27.936;2023-03-26T03:33:05;100219.00;;;12.74;100.00
9764;BME280;4921;43.214;27.936;2023-03-26T03:35:33;100219.44;;;12.70;100.00
9764;BME280;4921;43.214;27.936;2023-03-26T03:38:02;100217.16;;;12.75;100.00
9764;BME280;4921;43.214;27.936;2023-03-26T03:40:29;100208.56;;;12.73;100.00
9764;BME280;4921;43.214;27.936;2023-03-26T03:42:56;100226.75;;;12.76;100.00
9764;BME280;4921;43.214;27.936;2023-03-26T03:45:23;100233.41;;;12.80;100.00
9764;BME280;4921;43.214;27.936;2023-03-26T03:47:49;100236.56;;;12.83;100.00
9764;BME280;4921;43.214;27.936;2023-03-26T03:50:17;100240.88;;;12.84;100.00
9764;BME280;4921;43.214;27.936;2023-03-26T03:52:46;100236.28;;;12.86;100.00
9764;BME280;4921;43.214;27.936;2023-03-26T03:55:13;100238.66;;;12.89;100.00
9764;BME280;4921;43.214;27.936;2023-03-26T03:57:40;100238.34;;;12.92;100.00
9764;BME280;4921;43.214;27.936;2023-03-26T04:00:08;100258.34;;;12.95;100.00
9764;BME280;4921;43.214;27.936;2023-03-26T04:02:36;100241.97;;;12.91;100.00
9764;BME280;4921;43.214;27.936;2023-03-26T04:05:04;100242.16;;;12.80;100.00
9764;BME280;4921;43.214;27.936;2023-03-26T04:07:31;100239.50;;;12.80;100.00
9764;BME280;4921;43.214;27.936;2023-03-26T04:10:00;100235.44;;;12.86;100.00
9764;BME280;4921;43.214;27.936;2023-03-26T04:12:29;100241.13;;;12.91;100.00
9764;BME280;4921;43.214;27.936;2023-03-26T04:14:57;100242.50;;;13.05;100.00
9764;BME280;4921;43.214;27.936;2023-03-26T04:17:25;100241.91;;;13.11;100.00
9764;BME280;4921;43.214;27.936;2023-03-26T04:19:51;100241.59;;;13.14;100.00
9764;BME280;4921;43.214;27.936;2023-03-26T04:22:19;100255.72;;;13.22;100.00
9764;BME280;4921;43.214;27.936;2023-03-26T04:24:46;100250.16;;;13.25;100.00
9764;BME280;4921;43.214;27.936;2023-03-26T04:27:18;100242.31;;;13.33;100.00
9764;BME280;4921;43.214;27.936;2023-03-26T04:29:47;100246.31;;;13.37;100.00
9764;BME280;4921;43.214;27.936;2023-03-26T04:32:19;100241.41;;;13.42;100.00
9764;BME280;4921;43.214;27.936;2023-03-26T04:34:49;100250.53;;;13.48;100.00
9764;BME280;4921;43.214;27.936;2023-03-26T04:37:23;100255.25;;;13.54;100.00
9764;BME280;4921;43.214;27.936;2023-03-26T04:39:51;100262.88;;;13.57;100.00
9764;BME280;4921;43.214;27.936;2023-03-26T04:42:20;100252.84;;;13.60;100.00
9764;BME280;4921;43.214;27.936;2023-03-26T04:44:47;100261.97;;;13.66;100.00
9764;BME280;4921;43.214;27.936;2023-03-26T04:47:15;100264.31;;;13.69;100.00
9764;BME280;4921;43.214;27.936;2023-03-26T04:49:42;100266.34;;;13.75;100.00
9764;BME280;4921;43.214;27.936;2023-03-26T04:52:10;100268.69;;;13.78;100.00
9764;BME280;4921;43.214;27.936;2023-03-26T04:54:38;100269.59;;;13.87;100.00
9764;BME280;4921;43.214;27.936;2023-03-26T04:57:07;100265.00;;;13.89;100.00
9764;BME280;4921;43.214;27.936;2023-03-26T04:59:40;100271.31;;;13.96;100.00
9764;BME280;4921;43.214;27.936;2023-03-26T05:02:07;100280.94;;;13.97;100.00
9764;BME280;4921;43.214;27.936;2023-03-26T05:04:35;100282.56;;;13.98;100.00
9764;BME280;4921;43.214;27.936;2023-03-26T05:07:05;100283.81;;;14.03;100.00
9764;BME280;4921;43.214;27.936;2023-03-26T05:09:32;100277.00;;;14.01;100.00
9764;BME280;4921;43.214;27.936;2023-03-26T05:11:59;100281.16;;;14.03;100.00
9764;BME280;4921;43.214;27.936;2023-03-26T05:14:26;100290.91;;;14.03;100.00
9764;BME280;4921;43.214;27.936;2023-03-26T05:16:54;100282.81;;;14.04;100.00
9764;BME280;4921;43.214;27.936;2023-03-26T05:19:21;100273.06;;;14.05;100.00
9764;BME280;4921;43.214;27.936;2023-03-26T05:21:48;100278.34;;;14.05;100.00
9764;BME280;4921;43.214;27.936;2023-03-26T05:24:15;100267.03;;;14.12;100.00
9764;BME280;4921;43.214;27.936;2023-03-26T05:26:44;100275.84;;;14.21;100.00
9764;BME280;4921;43.214;27.936;2023-03-26T05:29:11;100285.28;;;14.23;100.00
9764;BME280;4921;43.214;27.936;2023-03-26T05:31:38;100287.63;;;14.26;100.00
9764;BME280;4921;43.214;27.936;2023-03-26T05:34:07;100294.50;;;14.19;100.00
9764;BME280;4921;43.214;27.936;2023-03-26T05:36:34;100286.28;;;14.22;100.00
9764;BME280;4921;43.214;27.936;2023-03-26T05:39:01;100278.50;;;14.21;100.00
9764;BME280;4921;43.214;27.936;2023-03-26T05:41:29;100275.69;;;14.22;100.00
9764;BME280;4921;43.214;27.936;2023-03-26T05:43:56;100278.59;;;14.29;100.00
9764;BME280;4921;43.214;27.936;2023-03-26T05:46:22;100283.63;;;14.22;100.00
9764;BME280;4921;43.214;27.936;2023-03-26T05:48:49;100266.31;;;14.28;100.00
9764;BME280;4921;43.214;27.936;2023-03-26T05:51:18;100287.25;;;14.39;100.00
9764;BME280;4921;43.214;27.936;2023-03-26T05:53:47;100281.19;;;14.46;100.00
9764;BME280;4921;43.214;27.936;2023-03-26T05:56:14;100284.97;;;14.44;100.00
9764;BME280;4921;43.214;27.936;2023-03-26T05:58:41;100292.50;;;14.57;100.00
9764;BME280;4921;43.214;27.936;2023-03-26T06:01:10;100303.28;;;14.63;100.00
9764;BME280;4921;43.214;27.936;2023-03-26T06:03:42;100287.72;;;14.60;100.00
9764;BME280;4921;43.214;27.936;2023-03-26T06:06:11;100295.72;;;14.68;100.00
9764;BME280;4921;43.214;27.936;2023-03-26T06:08:41;100307.00;;;14.70;100.00
9764;BME280;4921;43.214;27.936;2023-03-26T06:11:11;100310.47;;;14.71;100.00
9764;BME280;4921;43.214;27.936;2023-03-26T06:13:38;100308.72;;;14.79;100.00
9764;BME280;4921;43.214;27.936;2023-03-26T06:16:06;100312.31;;;14.78;100.00
9764;BME280;4921;43.214;27.936;2023-03-26T06:18:34;100303.91;;;14.83;100.00
9764;BME280;4921;43.214;27.936;2023-03-26T06:21:01;100304.88;;;14.82;100.00
9764;BME280;4921;43.214;27.936;2023-03-26T06:23:28;100309.41;;;14.89;100.00
9764;BME280;4921;43.214;27.936;2023-03-26T06:25:56;100308.91;;;14.86;100.00
9764;BME280;4921;43.214;27.936;2023-03-26T06:28:23;100301.56;;;14.80;100.00
9764;BME280;4921;43.214;27.936;2023-03-26T06:30:51;100300.44;;;14.82;100.00
9764;BME280;4921;43.214;27.936;2023-03-26T06:33:18;100304.28;;;14.88;100.00
9764;BME280;4921;43.214;27.936;2023-03-26T06:35:45;100301.31;;;14.91;100.00
9764;BME280;4921;43.214;27.936;2023-03-26T06:38:12;100302.50;;;14.96;100.00
9764;BME280;4921;43.214;27.936;2023-03-26T06:40:39;100312.78;;;14.99;100.00
9764;BME280;4921;43.214;27.936;2023-03-26T06:43:07;100316.44;;;14.98;100.00
9764;BME280;4921;43.214;27.936;2023-03-26T06:45:34;100321.06;;;14.96;100.00
9764;BME280;4921;43.214;27.936;2023-03-26T06:48:02;100318.88;;;14.92;100.00
9764;BME280;4921;43.214;27.936;2023-03-26T06:50:29;100325.59;;;14.86;100.00
9764;BME280;4921;43.214;27.936;2023-03-26T06:52:57;100330.91;;;14.86;100.00
9764;BME280;4921;43.214;27.936;2023-03-26T06:55:24;100330.09;;;14.86;100.00
9764;BME280;4921;43.214;27.936;2023-03-26T06:57:53;100329.00;;;14.96;100.00
9764;BME280;4921;43.214;27.936;2023-03-26T07:00:22;100324.19;;;15.00;100.00
9764;BME280;4921;43.214;27.936;2023-03-26T07:02:49;100325.38;;;15.05;100.00
9764;BME280;4921;43.214;27.936;2023-03-26T07:05:17;100324.91;;;15.10;100.00
9764;BME280;4921;43.214;27.936;2023-03-26T07:07:43;100326.56;;;15.03;100.00
9764;BME280;4921;43.214;27.936;2023-03-26T07:10:11;100324.19;;;15.00;100.00
9764;BME280;4921;43.214;27.936;2023-03-26T07:12:38;100341.94;;;15.07;100.00
9764;BME280;4921;43.214;27.936;2023-03-26T07:15:06;100333.69;;;15.10;100.00
9764;BME280;4921;43.214;27.936;2023-03-26T07:17:35;100335.84;;;15.07;100.00
9764;BME280;4921;43.214;27.936;2023-03-26T07:20:02;100338.94;;;15.02;100.00
9764;BME280;4921;43.214;27.936;2023-03-26T07:22:30;100324.41;;;15.06;100.00
9764;BME280;4921;43.214;27.936;2023-03-26T07:24:57;100328.91;;;15.14;100.00
9764;BME280;4921;43.214;27.936;2023-03-26T07:27:35;100336.63;;;15.33;100.00
9764;BME280;4921;43.214;27.936;2023-03-26T07:30:05;100328.78;;;15.57;100.00
9764;BME280;4921;43.214;27.936;2023-03-26T07:32:40;100328.84;;;15.81;100.00
9764;BME280;4921;43.214;27.936;2023-03-26T07:35:17;100335.53;;;16.01;100.00
9764;BME280;4921;43.214;27.936;2023-03-26T07:37:55;100335.38;;;16.19;100.00
9764;BME280;4921;43.214;27.936;2023-03-26T07:40:47;100330.72;;;16.29;100.00
9764;BME280;4921;43.214;27.936;2023-03-26T07:43:28;100327.56;;;16.42;100.00
9764;BME280;4921;43.214;27.936;2023-03-26T07:45:58;100326.94;;;16.56;100.00
9764;BME280;4921;43.214;27.936;2023-03-26T07:48:34;100321.78;;;16.70;100.00
9764;BME280;4921;43.214;27.936;2023-03-26T07:51:06;100319.59;;;16.82;100.00
9764;BME280;4921;43.214;27.936;2023-03-26T07:53:33;100312.47;;;16.74;100.00
9764;BME280;4921;43.214;27.936;2023-03-26T07:56:06;100304.53;;;16.66;100.00
9764;BME280;4921;43.214;27.936;2023-03-26T07:58:55;100307.34;;;16.65;100.00
9764;BME280;4921;43.214;27.936;2023-03-26T08:01:33;100294.25;;;16.63;100.00
9764;BME280;4921;43.214;27.936;2023-03-26T08:04:35;100287.78;;;16.50;100.00
9764;BME280;4921;43.214;27.936;2023-03-26T08:07:10;100283.63;;;16.47;100.00
9764;BME280;4921;43.214;27.936;2023-03-26T08:12:37;100300.03;;;16.67;100.00
9764;BME280;4921;43.214;27.936;2023-03-26T08:15:12;100289.09;;;16.70;100.00
9764;BME280;4921;43.214;27.936;2023-03-26T08:17:46;100296.88;;;16.80;100.00
9764;BME280;4921;43.214;27.936;2023-03-26T08:20:25;100290.56;;;16.72;100.00
9764;BME280;4921;43.214;27.936;2023-03-26T08:23:12;100300.84;;;16.84;100.00
9764;BME280;4921;43.214;27.936;2023-03-26T08:26:13;100285.78;;;17.15;100.00
9764;BME280;4921;43.214;27.936;2023-03-26T08:28:52;100292.31;;;17.43;100.00
9764;BME280;4921;43.214;27.936;2023-03-26T08:31:33;100304.06;;;17.57;100.00
9764;BME280;4921;43.214;27.936;2023-03-26T08:34:00;100300.63;;;17.79;100.00
9764;BME280;4921;43.214;27.936;2023-03-26T08:36:28;100302.56;;;18.07;100.00
9764;BME280;4921;43.214;27.936;2023-03-26T08:38:55;100288.34;;;18.38;100.00
9764;BME280;4921;43.214;27.936;2023-03-26T08:42:00;100280.53;;;18.59;100.00
9764;BME280;4921;43.214;27.936;2023-03-26T08:44:59;100278.53;;;18.75;100.00
9764;BME280;4921;43.214;27.936;2023-03-26T08:50:50;100288.00;;;18.92;100.00
9764;BME280;4921;43.214;27.936;2023-03-26T08:53:55;100286.34;;;19.21;100.00
9764;BME280;4921;43.214;27.936;2023-03-26T08:56:31;100286.78;;;19.39;100.00
9764;BME280;4921;43.214;27.936;2023-03-26T08:59:18;100286.50;;;19.48;100.00
9764;BME280;4921;43.214;27.936;2023-03-26T09:02:03;100280.75;;;19.66;100.00
9764;BME280;4921;43.214;27.936;2023-03-26T09:07:50;100288.41;;;19.54;100.00
9764;BME280;4921;43.214;27.936;2023-03-26T09:10:45;100296.25;;;19.41;100.00
9764;BME280;4921;43.214;27.936;2023-03-26T09:29:23;100321.59;;;18.79;96.72
9764;BME280;4921;43.214;27.936;2023-03-26T09:32:27;100324.25;;;18.64;93.61
9764;BME280;4921;43.214;27.936;2023-03-26T09:35:13;100327.00;;;18.56;90.88
9764;BME280;4921;43.214;27.936;2023-03-26T09:37:56;100332.13;;;18.58;78.81
9764;BME280;4921;43.214;27.936;2023-03-26T09:40:28;100335.53;;;18.52;74.18
9764;BME280;4921;43.214;27.936;2023-03-26T09:43:15;100329.03;;;18.69;72.15
9764;BME280;4921;43.214;27.936;2023-03-26T09:45:56;100332.00;;;18.74;70.98
9764;BME280;4921;43.214;27.936;2023-03-26T09:48:42;100337.34;;;18.74;72.61
9764;BME280;4921;43.214;27.936;2023-03-26T09:51:30;100347.59;;;18.77;68.76
9764;BME280;4921;43.214;27.936;2023-03-26T09:54:27;100357.50;;;18.68;68.07
9764;BME280;4921;43.214;27.936;2023-03-26T09:57:04;100341.19;;;18.71;70.18
9764;BME280;4921;43.214;27.936;2023-03-26T10:02:44;100327.44;;;18.97;71.12
9764;BME280;4921;43.214;27.936;2023-03-26T10:05:43;100328.81;;;19.08;60.93
9764;BME280;4921;43.214;27.936;2023-03-26T10:11:16;100335.41;;;19.26;61.73
9764;BME280;4921;43.214;27.936;2023-03-26T10:13:55;100338.75;;;19.43;60.88
9764;BME280;4921;43.214;27.936;2023-03-26T10:16:29;100340.00;;;19.61;64.51
9764;BME280;4921;43.214;27.936;2023-03-26T10:19:25;100344.81;;;19.87;61.38
9764;BME280;4921;43.214;27.936;2023-03-26T10:22:03;100341.34;;;20.08;62.13
9764;BME280;4921;43.214;27.936;2023-03-26T10:24:52;100350.72;;;20.18;56.87
9764;BME280;4921;43.214;27.936;2023-03-26T10:27:33;100356.06;;;19.83;57.19
9764;BME280;4921;43.214;27.936;2023-03-26T10:33:21;100362.50;;;19.73;59.40
9764;BME280;4921;43.214;27.936;2023-03-26T10:36:01;100356.53;;;19.71;60.71
9764;BME280;4921;43.214;27.936;2023-03-26T10:38:44;100358.66;;;19.76;60.71
9764;BME280;4921;43.214;27.936;2023-03-26T10:41:21;100363.19;;;19.61;58.48
9764;BME280;4921;43.214;27.936;2023-03-26T10:44:03;100358.06;;;19.45;59.50
9764;BME280;4921;43.214;27.936;2023-03-26T10:47:06;100362.94;;;19.41;60.01
9764;BME280;4921;43.214;27.936;2023-03-26T10:52:58;100356.47;;;19.07;60.65
9764;BME280;4921;43.214;27.936;2023-03-26T10:55:33;100356.84;;;19.18;59.37
9764;BME280;4921;43.214;27.936;2023-03-26T10:58:10;100360.59;;;19.24;58.54
9764;BME280;4921;43.214;27.936;2023-03-26T11:00:42;100357.19;;;19.15;58.70
9764;BME280;4921;43.214;27.936;2023-03-26T11:03:35;100360.50;;;19.02;58.41
9764;BME280;4921;43.214;27.936;2023-03-26T11:06:14;100358.22;;;18.99;57.74
9764;BME280;4921;43.214;27.936;2023-03-26T11:08:54;100358.47;;;18.90;57.75
9764;BME280;4921;43.214;27.936;2023-03-26T11:11:25;100364.53;;;18.84;58.39
9764;BME280;4921;43.214;27.936;2023-03-26T11:14:02;100356.78;;;18.74;58.34
9764;BME280;4921;43.214;27.936;2023-03-26T11:16:38;100359.09;;;18.77;59.10
9764;BME280;4921;43.214;27.936;2023-03-26T11:19:14;100378.75;;;18.76;59.26
9764;BME280;4921;43.214;27.936;2023-03-26T11:21:50;100370.84;;;18.83;58.73
9764;BME280;4921;43.214;27.936;2023-03-26T11:24:39;100369.41;;;18.95;57.99
9764;BME280;4921;43.214;27.936;2023-03-26T11:27:15;100366.66;;;19.18;57.03
9764;BME280;4921;43.214;27.936;2023-03-26T11:29:52;100371.34;;;19.30;56.19
9764;BME280;4921;43.214;27.936;2023-03-26T11:32:25;100353.31;;;19.32;55.38
9764;BME280;4921;43.214;27.936;2023-03-26T11:34:59;100349.22;;;19.59;56.17
9764;BME280;4921;43.214;27.936;2023-03-26T11:37:31;100344.75;;;19.81;56.22
9764;BME280;4921;43.214;27.936;2023-03-26T11:40:02;100352.00;;;20.08;54.01
9764;BME280;4921;43.214;27.936;2023-03-26T11:42:31;100346.63;;;20.01;54.40
9764;BME280;4921;43.214;27.936;2023-03-26T11:45:00;100343.91;;;20.16;54.55
9764;BME280;4921;43.214;27.936;2023-03-26T11:47:32;100341.50;;;20.21;53.71
9764;BME280;4921;43.214;27.936;2023-03-26T11:50:03;100346.94;;;20.13;51.22
9764;BME280;4921;43.214;27.936;2023-03-26T11:52:32;100345.53;;;20.31;51.40
9764;BME280;4921;43.214;27.936;2023-03-26T11:55:01;100342.72;;;20.39;49.14
9764;BME280;4921;43.214;27.936;2023-03-26T11:57:30;100340.03;;;20.61;47.94
9764;BME280;4921;43.214;27.936;2023-03-26T12:00:03;100341.19;;;20.79;45.18
9764;BME280;4921;43.214;27.936;2023-03-26T12:02:40;100339.81;;;20.90;47.74
9764;BME280;4921;43.214;27.936;2023-03-26T12:05:13;100337.38;;;20.95;47.49
9764;BME280;4921;43.214;27.936;2023-03-26T12:07:46;100336.19;;;20.97;47.89
9764;BME280;4921;43.214;27.936;2023-03-26T12:10:32;100335.28;;;21.18;46.83
9764;BME280;4921;43.214;27.936;2023-03-26T12:13:13;100343.47;;;21.10;46.45
9764;BME280;4921;43.214;27.936;2023-03-26T12:15:48;100340.69;;;20.97;46.46
9764;BME280;4921;43.214;27.936;2023-03-26T12:18:23;100335.84;;;21.07;45.41
9764;BME280;4921;43.214;27.936;2023-03-26T12:21:01;100323.22;;;21.01;43.49
9764;BME280;4921;43.214;27.936;2023-03-26T12:23:35;100338.09;;;21.03;44.12
9764;BME280;4921;43.214;27.936;2023-03-26T12:26:18;100336.69;;;21.07;43.69
9764;BME280;4921;43.214;27.936;2023-03-26T12:28:48;100331.41;;;21.20;41.08
9764;BME280;4921;43.214;27.936;2023-03-26T12:31:17;100329.91;;;21.11;41.42
9764;BME280;4921;43.214;27.936;2023-03-26T12:33:50;100332.16;;;21.08;43.14
9764;BME280;4921;43.214;27.936;2023-03-26T12:36:30;100332.16;;;21.08;42.82
9764;BME280;4921;43.214;27.936;2023-03-26T12:38:58;100332.38;;;21.06;41.82
9764;BME280;4921;43.214;27.936;2023-03-26T12:41:39;100327.78;;;21.00;41.98
9764;BME280;4921;43.214;27.936;2023-03-26T12:44:21;100337.97;;;20.90;42.63
9764;BME280;4921;43.214;27.936;2023-03-26T12:46:49;100332.84;;;20.89;43.27
9764;BME280;4921;43.214;27.936;2023-03-26T12:49:19;100328.13;;;20.91;43.34
9764;BME280;4921;43.214;27.936;2023-03-26T12:51:48;100323.31;;;20.80;43.08
9764;BME280;4921;43.214;27.936;2023-03-26T12:54:34;100311.16;;;20.77;44.20
9764;BME280;4921;43.214;27.936;2023-03-26T12:57:18;100306.84;;;20.76;43.19
9764;BME280;4921;43.214;27.936;2023-03-26T13:00:04;100306.25;;;20.81;41.96
9764;BME280;4921;43.214;27.936;2023-03-26T13:02:54;100305.47;;;20.87;41.47
9764;BME280;4921;43.214;27.936;2023-03-26T13:05:40;100304.38;;;20.81;43.00
9764;BME280;4921;43.214;27.936;2023-03-26T13:11:08;100296.25;;;20.89;43.32
9764;BME280;4921;43.214;27.936;2023-03-26T13:14:14;100291.44;;;20.78;42.96
9764;BME280;4921;43.214;27.936;2023-03-26T13:16:49;100294.53;;;20.82;42.25
9764;BME280;4921;43.214;27.936;2023-03-26T13:19:25;100291.66;;;20.83;42.43
9764;BME280;4921;43.214;27.936;2023-03-26T13:22:03;100292.06;;;20.80;41.25
9764;BME280;4921;43.214;27.936;2023-03-26T13:24:44;100293.66;;;20.75;41.19
9764;BME280;4921;43.214;27.936;2023-03-26T13:27:24;100292.25;;;20.79;40.77
9764;BME280;4921;43.214;27.936;2023-03-26T13:32:40;100288.25;;;20.68;42.60
9764;BME280;4921;43.214;27.936;2023-03-26T13:35:26;100287.97;;;20.84;42.30
9764;BME280;4921;43.214;27.936;2023-03-26T13:38:00;100295.41;;;20.89;40.51
9764;BME280;4921;43.214;27.936;2023-03-26T13:40:36;100303.75;;;20.79;41.25
9764;BME280;4921;43.214;27.936;2023-03-26T13:43:28;100293.19;;;20.65;42.60
9764;BME280;4921;43.214;27.936;2023-03-26T13:46:03;100301.41;;;20.63;42.56
9764;BME280;4921;43.214;27.936;2023-03-26T13:48:40;100307.75;;;20.62;42.84
9764;BME280;4921;43.214;27.936;2023-03-26T13:51:11;100296.59;;;20.52;42.57
9764;BME280;4921;43.214;27.936;2023-03-26T13:53:46;100293.03;;;20.45;42.78
9764;BME280;4921;43.214;27.936;2023-03-26T13:56:20;100295.00;;;20.36;43.25
9764;BME280;4921;43.214;27.936;2023-03-26T13:58:53;100288.78;;;20.29;43.07
9764;BME280;4921;43.214;27.936;2023-03-26T14:01:26;100295.84;;;20.16;44.19
9764;BME280;4921;43.214;27.936;2023-03-26T14:04:05;100295.56;;;19.90;48.58
9764;BME280;4921;43.214;27.936;2023-03-26T14:06:40;100296.63;;;18.94;52.14
9764;BME280;4921;43.214;27.936;2023-03-26T14:09:14;100296.91;;;18.10;56.27